createdAt,value
2023-04-16T00:00:51.748Z,8.40
2023-04-16T00:03:18.994Z,8.40
2023-04-16T00:05:46.321Z,8.80
2023-04-16T00:08:13.869Z,8.40
2023-04-16T00:10:41.108Z,8.40
2023-04-16T00:13:08.279Z,8.30
2023-04-16T00:15:35.573Z,8.30
2023-04-16T00:18:03.368Z,8.30
2023-04-16T00:20:30.598Z,8.30
2023-04-16T00:22:58.053Z,8.30
2023-04-16T00:25:25.355Z,8.20
2023-04-16T00:27:52.484Z,8.30
2023-04-16T00:30:19.664Z,8.30
2023-04-16T00:32:46.834Z,8.30
2023-04-16T00:35:14.123Z,8.30
2023-04-16T00:37:41.416Z,8.30
2023-04-16T00:40:09.130Z,8.30
2023-04-16T00:42:38.118Z,8.30
2023-04-16T00:45:06.577Z,8.30
2023-04-16T00:47:36.775Z,8.30
2023-04-16T00:50:05.665Z,8.20
2023-04-16T00:52:36.662Z,8.30
2023-04-16T00:55:13.195Z,8.30
2023-04-16T00:57:49.560Z,8.30
2023-04-16T01:00:22.620Z,8.30
2023-04-16T01:02:58.073Z,8.30
2023-04-16T01:05:36.443Z,8.30
2023-04-16T01:08:29.701Z,8.30
2023-04-16T01:11:04.384Z,8.30
2023-04-16T01:13:34.283Z,9.70
2023-04-16T01:16:14.362Z,8.30
2023-04-16T01:18:43.245Z,8.30
2023-04-16T01:21:24.008Z,8.30
2023-04-16T01:23:51.869Z,8.30
2023-04-16T01:26:19.631Z,8.30
2023-04-16T01:28:46.882Z,8.20
2023-04-16T01:31:14.132Z,8.30
2023-04-16T01:33:51.106Z,8.40
2023-04-16T01:36:18.344Z,8.30
2023-04-16T01:38:46.069Z,8.30
2023-04-16T01:41:13.187Z,8.40
2023-04-16T01:43:42.538Z,9.00
2023-04-16T01:46:20.650Z,8.40
2023-04-16T01:48:48.786Z,8.30
2023-04-16T01:51:16.149Z,8.60
2023-04-16T01:53:43.341Z,8.30
2023-04-16T01:56:10.900Z,8.40
2023-04-16T01:58:38.593Z,8.30
2023-04-16T02:01:06.095Z,8.30
2023-04-16T02:03:34.057Z,8.30
2023-04-16T02:06:01.858Z,8.30
2023-04-16T02:08:29.428Z,8.20
2023-04-16T02:10:57.335Z,8.20
2023-04-16T02:13:26.202Z,8.20
2023-04-16T02:15:53.929Z,8.30
2023-04-16T02:18:31.587Z,8.10
2023-04-16T02:21:00.377Z,8.10
2023-04-16T02:23:27.679Z,8.10
2023-04-16T02:25:55.820Z,8.10
2023-04-16T02:28:22.979Z,8.10
2023-04-16T02:30:51.070Z,8.10
2023-04-16T02:33:20.331Z,8.10
2023-04-16T02:35:55.683Z,8.10
2023-04-16T02:38:22.900Z,8.10
2023-04-16T02:40:50.147Z,8.20
2023-04-16T02:43:17.731Z,8.00
2023-04-16T02:45:45.126Z,8.00
2023-04-16T02:48:12.300Z,8.00
2023-04-16T02:50:39.727Z,8.00
2023-04-16T02:53:07.839Z,8.00
2023-04-16T02:55:35.045Z,8.00
2023-04-16T02:58:02.214Z,8.00
2023-04-16T03:00:29.386Z,8.10
2023-04-16T03:02:57.080Z,7.90
2023-04-16T03:05:24.465Z,7.90
2023-04-16T03:07:56.463Z,7.90
2023-04-16T03:10:24.191Z,7.90
2023-04-16T03:12:51.597Z,7.90
2023-04-16T03:15:18.748Z,7.90
2023-04-16T03:17:46.086Z,7.90
2023-04-16T03:20:14.423Z,7.80
2023-04-16T03:22:42.022Z,7.80
2023-04-16T03:25:09.475Z,7.80
2023-04-16T03:27:36.699Z,7.80
2023-04-16T03:30:04.796Z,7.90
2023-04-16T03:32:34.961Z,7.80
2023-04-16T03:35:05.958Z,7.80
2023-04-16T03:37:34.296Z,7.80
2023-04-16T03:40:01.747Z,7.80
2023-04-16T03:42:29.558Z,7.80
2023-04-16T03:44:58.001Z,7.80
2023-04-16T03:47:26.487Z,7.80
2023-04-16T03:50:00.099Z,7.80
2023-04-16T03:52:31.093Z,7.80
2023-04-16T03:54:59.065Z,7.70
2023-04-16T03:57:30.034Z,7.70
2023-04-16T04:00:03.435Z,7.70
2023-04-16T04:02:41.691Z,7.70
2023-04-16T04:05:16.166Z,7.70
2023-04-16T04:07:44.890Z,7.70
2023-04-16T04:10:12.118Z,7.70
2023-04-16T04:12:42.030Z,7.80
2023-04-16T04:15:10.273Z,7.80
2023-04-16T04:17:37.467Z,7.80
2023-04-16T04:20:05.231Z,7.80
2023-04-16T04:22:32.463Z,7.80
2023-04-16T04:24:59.769Z,7.80
2023-04-16T04:27:29.241Z,7.80
2023-04-16T04:29:57.644Z,7.80
2023-04-16T04:32:25.643Z,7.70
2023-04-16T04:34:52.965Z,7.70
2023-04-16T04:37:21.094Z,7.70
2023-04-16T04:39:48.583Z,7.70
2023-04-16T04:42:18.656Z,7.70
2023-04-16T04:44:46.148Z,7.70
2023-04-16T04:47:14.697Z,7.70
2023-04-16T04:49:41.853Z,7.70
2023-04-16T04:52:09.308Z,7.70
2023-04-16T04:54:36.697Z,7.70
2023-04-16T04:57:04.018Z,7.70
2023-04-16T04:59:31.385Z,7.70
2023-04-16T05:01:58.621Z,7.70
2023-04-16T05:04:25.903Z,7.80
2023-04-16T05:06:53.044Z,7.80
2023-04-16T05:09:20.222Z,7.90
2023-04-16T05:11:47.367Z,7.90
2023-04-16T05:14:14.605Z,7.90
2023-04-16T05:16:42.173Z,7.90
2023-04-16T05:19:09.598Z,7.90
2023-04-16T05:21:36.993Z,8.00
2023-04-16T05:24:04.140Z,8.00
2023-04-16T05:26:31.284Z,8.20
2023-04-16T05:28:58.494Z,8.20
2023-04-16T05:31:26.242Z,8.20
2023-04-16T05:33:53.672Z,8.30
2023-04-16T05:36:20.838Z,8.40
2023-04-16T05:38:48.051Z,8.40
2023-04-16T05:41:15.174Z,7.70
2023-04-16T05:43:42.259Z,8.60
2023-04-16T05:46:09.690Z,8.60
2023-04-16T05:48:36.972Z,8.60
2023-04-16T05:51:04.517Z,8.60
2023-04-16T05:53:31.640Z,8.60
2023-04-16T05:55:58.792Z,8.70
2023-04-16T05:58:26.029Z,8.70
2023-04-16T06:00:53.263Z,8.70
2023-04-16T06:03:20.683Z,8.70
2023-04-16T06:05:48.097Z,8.70
2023-04-16T06:08:15.526Z,8.70
2023-04-16T06:10:42.787Z,8.70
2023-04-16T06:13:10.013Z,8.70
2023-04-16T06:15:37.256Z,8.70
2023-04-16T06:18:04.569Z,8.80
2023-04-16T06:20:31.753Z,8.80
2023-04-16T06:22:58.959Z,8.90
2023-04-16T06:25:26.498Z,9.00
2023-04-16T06:27:53.732Z,9.00
2023-04-16T06:30:21.007Z,9.00
2023-04-16T06:32:48.288Z,9.10
2023-04-16T06:35:15.508Z,9.10
2023-04-16T06:37:42.667Z,9.10
2023-04-16T06:40:10.540Z,9.00
2023-04-16T06:42:37.817Z,9.10
2023-04-16T06:45:06.084Z,9.20
2023-04-16T06:47:33.376Z,9.10
2023-04-16T06:50:00.605Z,9.10
2023-04-16T06:52:29.162Z,9.10
2023-04-16T06:54:56.839Z,9.10
2023-04-16T06:57:24.078Z,9.10
2023-04-16T06:59:51.275Z,9.10
2023-04-16T07:02:18.723Z,9.20
2023-04-16T07:04:46.285Z,9.20
2023-04-16T07:07:13.592Z,9.20
2023-04-16T07:09:40.712Z,9.30
2023-04-16T07:12:08.310Z,9.40
2023-04-16T07:14:35.424Z,9.40
2023-04-16T07:17:02.594Z,9.50
2023-04-16T07:19:32.506Z,9.50
2023-04-16T07:22:03.054Z,9.60
2023-04-16T07:24:30.632Z,9.60
2023-04-16T07:26:57.864Z,9.70
2023-04-16T07:29:25.217Z,9.60
2023-04-16T07:31:52.655Z,9.70
2023-04-16T07:34:19.935Z,9.70
2023-04-16T07:36:47.272Z,9.60
2023-04-16T07:39:14.587Z,9.50
2023-04-16T07:41:41.944Z,9.50
2023-04-16T07:44:09.503Z,9.60
2023-04-16T07:46:46.148Z,9.60
2023-04-16T07:49:15.443Z,9.50
2023-04-16T07:51:42.734Z,9.60
2023-04-16T07:54:11.103Z,9.60
2023-04-16T07:56:38.656Z,9.60
2023-04-16T07:59:21.098Z,9.60
2023-04-16T08:01:49.934Z,9.70
2023-04-16T08:04:23.042Z,9.80
2023-04-16T08:06:54.426Z,9.90
2023-04-16T08:09:23.795Z,10.00
2023-04-16T08:11:51.153Z,10.10
2023-04-16T08:14:18.297Z,10.30
2023-04-16T08:16:45.591Z,10.30
2023-04-16T08:19:12.986Z,10.50
2023-04-16T08:21:40.670Z,10.60
2023-04-16T08:24:08.091Z,10.70
2023-04-16T08:26:35.422Z,10.90
2023-04-16T08:29:02.708Z,10.90
2023-04-16T08:31:30.245Z,10.90
2023-04-16T08:33:57.479Z,10.90
2023-04-16T08:36:24.636Z,10.90
2023-04-16T08:38:52.331Z,11.10
2023-04-16T08:41:22.838Z,11.20
2023-04-16T08:43:53.004Z,11.40
2023-04-16T08:46:25.446Z,11.60
2023-04-16T08:48:57.856Z,11.70
2023-04-16T08:51:30.040Z,11.80
2023-04-16T08:54:05.279Z,11.80
2023-04-16T08:56:37.277Z,11.80
2023-04-16T08:59:07.941Z,11.80
2023-04-16T09:01:36.205Z,11.80
2023-04-16T09:04:04.215Z,11.80
2023-04-16T09:06:33.301Z,11.80
2023-04-16T09:09:04.668Z,11.70
2023-04-16T09:11:32.433Z,11.70
2023-04-16T09:14:00.784Z,11.70
2023-04-16T09:16:31.338Z,11.80
2023-04-16T09:18:58.714Z,11.80
2023-04-16T09:21:28.060Z,11.70
2023-04-16T09:23:55.786Z,11.60
2023-04-16T09:26:23.282Z,11.50
2023-04-16T09:28:53.313Z,11.40
2023-04-16T09:31:21.625Z,11.40
2023-04-16T09:34:07.467Z,11.40
2023-04-16T09:36:36.780Z,11.60
2023-04-16T09:39:04.647Z,12.00
2023-04-16T09:41:36.146Z,12.60
2023-04-16T09:44:05.385Z,13.10
2023-04-16T09:46:37.546Z,13.50
2023-04-16T09:49:15.557Z,13.70
2023-04-16T09:51:45.027Z,13.80
2023-04-16T09:54:12.410Z,13.90
2023-04-16T09:56:45.188Z,14.00
2023-04-16T09:59:19.966Z,14.10
2023-04-16T10:01:49.428Z,14.10
2023-04-16T10:04:17.612Z,14.00
2023-04-16T10:06:48.504Z,13.80
2023-04-16T10:09:16.239Z,13.90
2023-04-16T10:11:43.373Z,14.00
2023-04-16T10:14:10.791Z,14.30
2023-04-16T10:16:41.203Z,14.70
2023-04-16T10:19:09.020Z,15.10
2023-04-16T10:21:36.688Z,15.30
2023-04-16T10:24:04.649Z,15.10
2023-04-16T10:26:32.400Z,14.70
2023-04-16T10:29:00.477Z,14.40
2023-04-16T10:31:28.453Z,14.20
2023-04-16T10:33:56.850Z,14.20
2023-04-16T10:36:26.707Z,14.10
2023-04-16T10:38:59.271Z,13.90
2023-04-16T10:41:27.435Z,13.60
2023-04-16T10:44:09.956Z,13.50
2023-04-16T10:46:43.050Z,13.30
2023-04-16T10:49:39.354Z,13.20
2023-04-16T10:52:14.879Z,13.10
2023-04-16T10:54:42.148Z,13.10
2023-04-16T10:57:16.171Z,13.20
2023-04-16T10:59:45.089Z,13.20
2023-04-16T11:02:16.953Z,13.30
2023-04-16T11:04:46.720Z,13.30
2023-04-16T11:07:13.991Z,13.40
2023-04-16T11:09:46.523Z,13.70
2023-04-16T11:12:39.887Z,14.00
2023-04-16T11:15:11.934Z,14.50
2023-04-16T11:17:43.207Z,15.20
2023-04-16T11:20:28.162Z,16.00
2023-04-16T11:22:57.961Z,17.10
2023-04-16T11:25:34.185Z,18.40
2023-04-16T11:28:02.873Z,19.40
2023-04-16T11:30:36.842Z,19.50
2023-04-16T11:33:13.355Z,19.70
2023-04-16T11:35:41.588Z,19.20
2023-04-16T11:38:09.212Z,18.50
2023-04-16T11:40:36.901Z,17.70
2023-04-16T11:43:16.358Z,17.60
2023-04-16T11:46:10.305Z,18.10
2023-04-16T11:48:56.103Z,18.10
2023-04-16T11:51:24.144Z,18.70
2023-04-16T11:53:56.216Z,18.80
2023-04-16T11:56:36.331Z,18.90
2023-04-16T11:59:14.670Z,18.80
2023-04-16T12:01:47.668Z,18.70
2023-04-16T12:04:17.541Z,19.00
2023-04-16T12:07:11.025Z,19.20
2023-04-16T12:09:43.772Z,19.20
2023-04-16T12:12:27.678Z,19.30
2023-04-16T12:14:57.149Z,18.90
2023-04-16T12:17:24.863Z,18.00
2023-04-16T12:20:00.893Z,17.60
2023-04-16T12:22:37.678Z,17.40
2023-04-16T12:25:11.732Z,17.60
2023-04-16T12:27:53.363Z,17.80
2023-04-16T12:30:23.724Z,17.60
2023-04-16T12:33:18.433Z,17.70
2023-04-16T12:35:45.941Z,18.10
2023-04-16T12:38:15.273Z,17.60
2023-04-16T12:40:43.501Z,17.60
2023-04-16T12:43:11.250Z,17.50
2023-04-16T12:45:39.930Z,17.80
2023-04-16T12:48:07.557Z,18.60
2023-04-16T12:50:35.104Z,18.90
2023-04-16T12:53:02.596Z,19.20
2023-04-16T12:55:30.299Z,19.50
2023-04-16T12:57:58.056Z,19.80
2023-04-16T13:00:25.635Z,20.40
2023-04-16T13:02:53.363Z,21.20
2023-04-16T13:05:21.095Z,21.30
2023-04-16T13:07:48.595Z,21.80
2023-04-16T13:10:16.787Z,21.90
2023-04-16T13:12:44.283Z,21.60
2023-04-16T13:15:11.768Z,21.10
2023-04-16T13:17:39.204Z,20.80
2023-04-16T13:20:07.748Z,19.90
2023-04-16T13:22:35.459Z,19.20
2023-04-16T13:25:02.868Z,18.80
2023-04-16T13:27:32.089Z,19.70
2023-04-16T13:29:59.715Z,21.20
2023-04-16T13:32:27.331Z,22.50
2023-04-16T13:34:54.846Z,23.90
2023-04-16T13:37:22.240Z,25.30
2023-04-16T13:39:49.546Z,25.90
2023-04-16T13:42:16.955Z,26.40
2023-04-16T13:44:44.982Z,25.80
2023-04-16T13:47:12.428Z,25.40
2023-04-16T13:49:39.788Z,25.00
2023-04-16T13:52:07.183Z,24.70
2023-04-16T13:54:34.509Z,24.60
2023-04-16T13:57:01.929Z,25.40
2023-04-16T13:59:29.466Z,26.50
2023-04-16T14:01:57.222Z,26.70
2023-04-16T14:04:24.910Z,24.40
2023-04-16T14:06:52.403Z,22.10
2023-04-16T14:09:19.696Z,20.20
2023-04-16T14:11:47.171Z,18.40
2023-04-16T14:14:14.821Z,17.00
2023-04-16T14:16:42.324Z,16.20
2023-04-16T14:19:10.224Z,15.50
2023-04-16T14:21:38.036Z,15.40
2023-04-16T14:24:06.253Z,15.30
2023-04-16T14:26:33.602Z,15.20
2023-04-16T14:29:01.540Z,15.20
2023-04-16T14:31:28.983Z,15.20
2023-04-16T14:33:56.449Z,15.20
2023-04-16T14:36:24.035Z,15.00
2023-04-16T14:38:51.539Z,15.00
2023-04-16T14:41:18.977Z,15.00
2023-04-16T14:43:46.324Z,14.80
2023-04-16T14:46:17.857Z,14.70
2023-04-16T14:48:46.098Z,14.60
2023-04-16T14:51:13.731Z,14.60
2023-04-16T14:53:41.163Z,14.70
2023-04-16T14:56:08.560Z,14.80
2023-04-16T14:58:38.633Z,14.80
2023-04-16T15:01:06.992Z,14.70
2023-04-16T15:03:35.257Z,14.70
2023-04-16T15:06:03.329Z,14.50
2023-04-16T15:08:31.447Z,14.40
2023-04-16T15:10:58.866Z,14.30
2023-04-16T15:13:33.650Z,14.30
2023-04-16T15:16:07.498Z,14.30
2023-04-16T15:18:35.897Z,13.90
2023-04-16T15:21:04.324Z,13.50
2023-04-16T15:23:31.933Z,13.30
2023-04-16T15:25:59.397Z,13.30
2023-04-16T15:28:27.202Z,13.40
2023-04-16T15:30:55.027Z,13.40
2023-04-16T15:33:22.658Z,13.50
2023-04-16T15:35:51.745Z,13.60
2023-04-16T15:38:23.484Z,13.60
2023-04-16T15:40:51.454Z,13.50
2023-04-16T15:43:19.261Z,13.30
2023-04-16T15:45:46.714Z,13.20
2023-04-16T15:48:14.377Z,13.20
2023-04-16T15:50:42.005Z,13.20
2023-04-16T15:53:09.699Z,13.20
2023-04-16T15:55:40.274Z,13.30
2023-04-16T15:58:08.346Z,13.30
2023-04-16T16:00:35.898Z,13.30
2023-04-16T16:03:03.711Z,13.20
2023-04-16T16:05:31.419Z,13.20
2023-04-16T16:07:58.961Z,13.20
2023-04-16T16:10:26.221Z,13.10
2023-04-16T16:12:53.762Z,13.10
2023-04-16T16:15:21.620Z,13.10
2023-04-16T16:17:49.055Z,13.00
2023-04-16T16:20:16.463Z,12.80
2023-04-16T16:22:45.309Z,12.60
2023-04-16T16:25:12.770Z,12.40
2023-04-16T16:27:40.754Z,12.30
2023-04-16T16:30:09.494Z,12.30
2023-04-16T16:32:37.764Z,12.30
2023-04-16T16:35:05.814Z,12.20
2023-04-16T16:37:33.250Z,12.20
2023-04-16T16:40:00.692Z,12.20
2023-04-16T16:42:28.172Z,12.20
2023-04-16T16:44:57.339Z,12.20
2023-04-16T16:47:25.118Z,12.20
2023-04-16T16:49:54.668Z,12.20
2023-04-16T16:52:26.194Z,12.10
2023-04-16T16:54:54.730Z,12.10
2023-04-16T16:57:23.916Z,12.10
2023-04-16T16:59:51.519Z,12.00
2023-04-16T17:02:19.223Z,11.90
2023-04-16T17:04:46.845Z,11.90
2023-04-16T17:07:14.621Z,11.80
2023-04-16T17:09:42.204Z,11.80
2023-04-16T17:12:09.849Z,11.70
2023-04-16T17:14:37.402Z,11.70
2023-04-16T17:17:04.871Z,11.60
2023-04-16T17:19:32.387Z,11.60
2023-04-16T17:21:59.879Z,11.60
2023-04-16T17:24:27.229Z,11.60
2023-04-16T17:26:54.760Z,11.50
2023-04-16T17:29:25.954Z,11.50
2023-04-16T17:31:53.902Z,11.40
2023-04-16T17:34:22.141Z,11.30
2023-04-16T17:36:52.514Z,11.10
2023-04-16T17:39:21.053Z,11.00
2023-04-16T17:41:54.257Z,10.80
2023-04-16T17:44:23.121Z,10.60
2023-04-16T17:46:50.940Z,10.50
2023-04-16T17:49:18.324Z,10.40
2023-04-16T17:51:45.802Z,10.20
2023-04-16T17:54:13.249Z,10.20
2023-04-16T17:56:41.040Z,10.20
2023-04-16T17:59:08.382Z,10.10
2023-04-16T18:01:36.327Z,10.00
2023-04-16T18:04:04.078Z,9.90
2023-04-16T18:06:32.387Z,9.90
2023-04-16T18:09:11.401Z,9.80
2023-04-16T18:11:51.173Z,9.80
2023-04-16T18:14:22.261Z,10.50
2023-04-16T18:16:55.121Z,10.50
2023-04-16T18:19:30.664Z,9.60
2023-04-16T18:22:02.330Z,9.60
2023-04-16T18:24:30.782Z,9.50
2023-04-16T18:27:07.896Z,9.50
2023-04-16T18:29:38.806Z,9.50
2023-04-16T18:32:11.798Z,10.30
2023-04-16T18:34:40.541Z,9.50
2023-04-16T18:37:14.924Z,9.50
2023-04-16T18:39:42.344Z,9.50
2023-04-16T18:42:09.896Z,9.60
2023-04-16T18:44:37.222Z,9.40
2023-04-16T18:47:06.905Z,9.30
2023-04-16T18:49:34.251Z,9.30
2023-04-16T18:52:01.932Z,10.20
2023-04-16T18:54:29.357Z,9.20
2023-04-16T18:56:57.401Z,9.20
2023-04-16T18:59:25.921Z,9.90
2023-04-16T19:01:53.144Z,9.20
2023-04-16T19:04:20.623Z,9.20
2023-04-16T19:06:48.493Z,9.20
2023-04-16T19:09:21.550Z,9.20
2023-04-16T19:11:50.588Z,9.10
2023-04-16T19:14:18.496Z,9.10
2023-04-16T19:16:45.791Z,9.10
2023-04-16T19:19:13.458Z,9.10
2023-04-16T19:21:41.225Z,9.70
2023-04-16T19:24:08.594Z,9.10
2023-04-16T19:26:50.427Z,9.10
2023-04-16T19:29:25.289Z,9.10
2023-04-16T19:32:05.437Z,9.10
2023-04-16T19:34:32.926Z,9.20
2023-04-16T19:37:01.029Z,9.10
2023-04-16T19:39:28.836Z,9.20
2023-04-16T19:41:56.259Z,9.20
2023-04-16T19:44:23.655Z,9.20
2023-04-16T19:46:50.963Z,9.20
2023-04-16T19:49:18.774Z,9.20
2023-04-16T19:51:46.507Z,9.20
2023-04-16T19:54:17.644Z,9.20
2023-04-16T19:56:45.142Z,9.20
2023-04-16T19:59:12.858Z,9.20
2023-04-16T20:01:40.746Z,9.20
2023-04-16T20:04:08.022Z,9.10
2023-04-16T20:06:35.449Z,9.10
2023-04-16T20:09:02.771Z,9.30
2023-04-16T20:11:30.060Z,9.10
2023-04-16T20:14:00.276Z,9.10
2023-04-16T20:16:27.468Z,9.10
2023-04-16T20:18:54.723Z,9.10
2023-04-16T20:21:25.164Z,9.10
2023-04-16T20:23:52.312Z,9.00
2023-04-16T20:26:19.680Z,9.00
2023-04-16T20:28:46.984Z,9.00
2023-04-16T20:31:14.320Z,9.00
2023-04-16T20:33:41.577Z,9.00
2023-04-16T20:36:09.385Z,8.90
2023-04-16T20:38:37.624Z,8.90
2023-04-16T20:41:14.699Z,8.80
2023-04-16T20:43:42.391Z,8.70
2023-04-16T20:46:12.700Z,8.70
2023-04-16T20:48:40.044Z,8.60
2023-04-16T20:51:10.318Z,8.50
2023-04-16T20:53:37.781Z,8.40
2023-04-16T20:56:07.007Z,8.50
2023-04-16T20:58:34.267Z,8.30
2023-04-16T21:01:01.896Z,8.30
2023-04-16T21:03:29.292Z,8.20
2023-04-16T21:05:56.750Z,8.20
2023-04-16T21:08:24.605Z,8.20
2023-04-16T21:10:52.161Z,8.20
2023-04-16T21:13:20.972Z,8.20
2023-04-16T21:15:48.483Z,8.30
2023-04-16T21:18:17.073Z,8.30
2023-04-16T21:20:44.807Z,8.30
2023-04-16T21:23:12.351Z,8.30
2023-04-16T21:25:39.575Z,8.40
2023-04-16T21:28:07.198Z,8.30
2023-04-16T21:30:34.533Z,8.40
2023-04-16T21:33:01.701Z,8.40
2023-04-16T21:35:33.088Z,8.40
2023-04-16T21:38:00.262Z,8.40
2023-04-16T21:40:27.697Z,8.40
2023-04-16T21:42:55.196Z,8.50
2023-04-16T21:45:22.558Z,8.50
2023-04-16T21:47:49.829Z,8.50
2023-04-16T21:50:17.140Z,8.60
2023-04-16T21:52:46.137Z,8.50
2023-04-16T21:55:14.456Z,8.50
2023-04-16T21:57:41.727Z,8.40
2023-04-16T22:00:13.854Z,8.50
2023-04-16T22:02:42.722Z,8.40
2023-04-16T22:05:11.421Z,8.40
2023-04-16T22:07:38.804Z,8.40
2023-04-16T22:10:08.699Z,8.40
2023-04-16T22:12:39.702Z,8.40
2023-04-16T22:15:09.028Z,8.40
2023-04-16T22:17:36.496Z,8.40
2023-04-16T22:20:12.912Z,8.40
2023-04-16T22:22:41.899Z,8.40
2023-04-16T22:25:10.267Z,8.40
2023-04-16T22:27:37.964Z,8.40
2023-04-16T22:30:08.340Z,8.40
2023-04-16T22:32:35.697Z,8.40
2023-04-16T22:35:03.330Z,8.40
2023-04-16T22:37:30.717Z,8.40
2023-04-16T22:39:58.090Z,8.40
2023-04-16T22:42:25.224Z,8.40
2023-04-16T22:44:52.362Z,8.30
2023-04-16T22:47:19.707Z,8.20
2023-04-16T22:49:47.666Z,8.20
2023-04-16T22:52:14.856Z,8.30
2023-04-16T22:54:42.087Z,8.30
2023-04-16T22:57:09.245Z,8.30
2023-04-16T22:59:36.470Z,8.40
2023-04-16T23:02:03.832Z,8.40
2023-04-16T23:04:32.892Z,8.40
2023-04-16T23:07:00.364Z,8.40
2023-04-16T23:09:27.536Z,8.30
2023-04-16T23:11:54.664Z,8.20
2023-04-16T23:14:21.808Z,8.10
2023-04-16T23:16:48.982Z,8.10
2023-04-16T23:19:16.142Z,8.10
2023-04-16T23:21:44.678Z,8.10
2023-04-16T23:24:11.924Z,8.10
2023-04-16T23:26:40.498Z,8.10
2023-04-16T23:29:07.946Z,8.10
2023-04-16T23:31:35.241Z,8.10
2023-04-16T23:34:02.659Z,8.10
2023-04-16T23:36:29.848Z,8.10
2023-04-16T23:38:57.009Z,8.10
2023-04-16T23:41:24.395Z,8.10
2023-04-16T23:43:51.807Z,8.10
2023-04-16T23:46:19.060Z,8.00
2023-04-16T23:48:46.250Z,8.10
2023-04-16T23:51:13.513Z,8.10
2023-04-16T23:53:41.087Z,8.10
2023-04-16T23:56:11.140Z,8.10
2023-04-16T23:58:38.530Z,8.10
